Time;durP1;ratioP1;P1;durP2;ratioP2;P2;SDS_P1;SDS_P2;PMS_P1;PMS_P2;Temp;Humidity;BMP_temperature;BMP_pressure;BME280_temperature;BME280_humidity;BME280_pressure;Samples;Min_cycle;Max_cycle;Signal;HPM_P1;HPM_P2
2023/08/04 00:00:22;;;;;;;4.60;2.40;;;;;;;21.52;100.00;99169.92;105937;1250;71165;-74
2023/08/04 00:02:49;;;;;;;2.30;1.90;;;;;;;21.52;100.00;99171.18;105853;1250;72580;-75
2023/08/04 00:05:16;;;;;;;3.20;2.10;;;;;;;21.52;100.00;99172.11;105858;1250;61286;-74
2023/08/04 00:07:43;;;;;;;5.80;2.50;;;;;;;21.51;100.00;99174.33;105904;1251;61263;-75
2023/08/04 00:10:10;;;;;;;2.70;2.00;;;;;;;21.50;100.00;99177.98;105893;1253;73115;-76
2023/08/04 00:12:36;;;;;;;3.60;2.10;;;;;;;21.49;100.00;99178.23;105872;1256;69134;-74
2023/08/04 00:15:04;;;;;;;2.50;2.20;;;;;;;21.47;100.00;99179.27;105867;1254;61261;-75
2023/08/04 00:17:33;;;;;;;6.50;2.40;;;;;;;21.47;100.00;99177.49;105934;1251;61354;-74
2023/08/04 00:19:59;;;;;;;2.60;2.10;;;;;;;21.46;100.00;99175.74;106068;1252;61248;-75
2023/08/04 00:22:26;;;;;;;2.40;2.20;;;;;;;21.46;100.00;99178.61;105860;1250;74828;-75
2023/08/04 00:24:53;;;;;;;3.80;2.30;;;;;;;21.46;100.00;99175.45;105876;1251;71090;-74
2023/08/04 00:27:19;;;;;;;1.90;1.80;;;;;;;21.45;100.00;99175.46;105911;1250;72470;-74
2023/08/04 00:29:46;;;;;;;4.60;2.60;;;;;;;21.44;100.00;99174.13;105882;1250;61354;-74
2023/08/04 00:32:13;;;;;;;5.70;2.40;;;;;;;21.43;100.00;99172.46;105848;1250;61234;-75
2023/08/04 00:34:40;;;;;;;4.70;2.00;;;;;;;21.41;100.00;99172.61;105881;1255;74671;-75
2023/08/04 00:37:06;;;;;;;5.50;2.30;;;;;;;21.39;100.00;99172.98;105857;1250;69935;-75
2023/08/04 00:39:33;;;;;;;1.80;1.70;;;;;;;21.38;100.00;99171.61;105906;1255;72518;-74
2023/08/04 00:42:00;;;;;;;6.10;1.80;;;;;;;21.37;100.00;99169.05;105856;1250;61247;-76
2023/08/04 00:44:27;;;;;;;2.40;2.00;;;;;;;21.36;100.00;99171.45;105928;1251;61243;-75
2023/08/04 00:46:53;;;;;;;4.60;2.10;;;;;;;21.36;100.00;99174.00;105865;1256;61328;-76
2023/08/04 00:49:20;;;;;;;5.30;2.20;;;;;;;21.35;100.00;99175.45;105921;1250;61336;-74
2023/08/04 00:51:47;;;;;;;4.40;2.40;;;;;;;21.34;100.00;99171.26;105841;1250;70591;-74
2023/08/04 00:54:14;;;;;;;3.20;2.50;;;;;;;21.33;100.00;99175.25;105896;1254;61138;-75
2023/08/04 00:56:41;;;;;;;2.00;1.90;;;;;;;21.32;100.00;99175.05;105913;1250;61356;-75
2023/08/04 00:59:08;;;;;;;6.10;2.70;;;;;;;21.29;100.00;99174.88;105933;1254;74732;-75
2023/08/04 01:01:35;;;;;;;4.70;2.20;;;;;;;21.27;100.00;99175.58;105890;1251;70931;-75
2023/08/04 01:04:01;;;;;;;2.50;2.10;;;;;;;21.25;100.00;99176.83;105890;1254;72424;-75
2023/08/04 01:06:49;;;;;;;5.00;2.30;;;;;;;21.23;100.00;99178.80;105893;1250;61241;-75
2023/08/04 01:09:22;;;;;;;5.40;2.20;;;;;;;21.21;100.00;99176.65;105879;1250;61343;-75
2023/08/04 01:12:15;;;;;;;4.30;2.10;;;;;;;21.20;100.00;99176.95;105933;1250;74487;-75
2023/08/04 01:14:42;;;;;;;5.50;2.00;;;;;;;21.18;100.00;99171.75;105943;1250;70906;-74
2023/08/04 01:17:23;;;;;;;7.40;2.30;;;;;;;21.16;100.00;99171.91;105885;1251;71247;-75
2023/08/04 01:19:50;;;;;;;2.40;2.20;;;;;;;21.13;100.00;99170.15;105952;1250;61237;-75
2023/08/04 01:22:17;;;;;;;3.40;2.00;;;;;;;21.12;100.00;99173.12;105869;1250;61278;-76
2023/08/04 01:24:43;;;;;;;4.20;1.90;;;;;;;21.11;100.00;99169.98;105873;1250;73750;-74
2023/08/04 01:27:12;;;;;;;3.20;2.30;;;;;;;21.10;100.00;99167.95;105876;1250;61439;-75
2023/08/04 01:29:40;;;;;;;3.30;2.00;;;;;;;21.08;100.00;99165.75;105919;1256;72449;-74
2023/08/04 01:32:07;;;;;;;3.20;2.00;;;;;;;21.08;100.00;99165.99;105955;1250;61279;-75
2023/08/04 01:34:33;;;;;;;3.40;2.70;;;;;;;21.08;100.00;99172.55;105730;1250;61386;-75
2023/08/04 01:37:00;;;;;;;2.30;2.20;;;;;;;21.06;100.00;99177.52;105737;1250;74668;-74
2023/08/04 01:39:27;;;;;;;2.50;2.30;;;;;;;21.05;100.00;99177.23;105892;1255;69660;-75
2023/08/04 01:41:54;;;;;;;3.90;1.90;;;;;;;21.04;100.00;99178.58;105875;1250;72499;-75
2023/08/04 01:44:21;;;;;;;2.40;2.10;;;;;;;21.03;100.00;99181.17;105861;1250;61783;-75
2023/08/04 01:46:47;;;;;;;3.70;2.30;;;;;;;21.02;100.00;99181.24;105938;1256;61247;-74
2023/08/04 01:49:14;;;;;;;2.40;2.20;;;;;;;21.00;100.00;99175.19;105850;1250;61409;-74
2023/08/04 01:51:41;;;;;;;5.30;2.60;;;;;;;20.98;100.00;99176.95;105897;1250;70876;-74
2023/08/04 01:54:07;;;;;;;3.30;2.40;;;;;;;20.97;100.00;99177.62;105849;1251;72524;-74
2023/08/04 01:56:34;;;;;;;6.70;2.60;;;;;;;20.95;100.00;99173.77;105857;1250;61272;-74
2023/08/04 01:59:01;;;;;;;2.80;2.60;;;;;;;20.95;100.00;99178.64;105886;1255;61167;-75
2023/08/04 02:01:28;;;;;;;3.00;2.30;;;;;;;20.94;100.00;99179.42;105910;1253;74361;-75
2023/08/04 02:03:55;;;;;;;3.70;2.80;;;;;;;20.94;100.00;99179.64;105847;1255;69680;-75
2023/08/04 02:06:21;;;;;;;3.50;2.40;;;;;;;20.92;100.00;99183.20;105877;1256;72411;-74
2023/08/04 02:08:48;;;;;;;3.10;2.20;;;;;;;20.90;100.00;99182.64;105813;1254;61340;-74
2023/08/04 02:11:15;;;;;;;4.10;2.70;;;;;;;20.89;100.00;99184.69;105868;1254;61439;-74
2023/08/04 02:13:42;;;;;;;2.40;2.20;;;;;;;20.87;100.00;99178.96;105868;1253;74581;-75
2023/08/04 02:16:08;;;;;;;6.00;2.60;;;;;;;20.85;100.00;99182.84;105877;1256;70903;-75
2023/08/04 02:18:35;;;;;;;4.20;2.60;;;;;;;20.83;100.00;99184.83;105876;1263;61248;-75
2023/08/04 02:21:02;;;;;;;3.80;2.30;;;;;;;20.81;100.00;99183.58;105855;1250;61922;-74
2023/08/04 02:23:30;;;;;;;2.90;2.40;;;;;;;20.80;100.00;99177.08;105892;1251;61295;-74
2023/08/04 02:25:57;;;;;;;2.70;2.40;;;;;;;20.78;100.00;99180.16;105930;1251;74469;-74
2023/08/04 02:28:23;;;;;;;2.90;2.50;;;;;;;20.78;100.00;99180.40;105914;1251;70836;-75
2023/08/04 02:30:50;;;;;;;2.70;2.50;;;;;;;20.76;100.00;99187.88;105874;1255;72620;-74
2023/08/04 02:33:16;;;;;;;5.20;2.70;;;;;;;20.74;100.00;99186.80;105908;1251;61241;-74
2023/08/04 02:35:45;;;;;;;4.00;2.50;;;;;;;20.72;100.00;99190.67;105865;1256;61163;-75
2023/08/04 02:38:12;;;;;;;3.20;2.30;;;;;;;20.71;100.00;99193.98;105917;1250;74664;-75
2023/08/04 02:40:38;;;;;;;3.20;2.30;;;;;;;20.68;100.00;99199.70;105929;1251;61315;-75
2023/08/04 02:43:05;;;;;;;2.70;2.50;;;;;;;20.66;100.00;99204.39;105916;1251;71208;-75
2023/08/04 02:45:33;;;;;;;3.90;3.00;;;;;;;20.64;100.00;99203.85;105894;1257;61266;-75
2023/08/04 02:48:00;;;;;;;4.50;2.50;;;;;;;20.62;100.00;99206.27;105844;1251;61244;-75
2023/08/04 02:50:27;;;;;;;5.60;2.90;;;;;;;20.62;100.00;99208.44;105950;1256;74363;-75
2023/08/04 02:52:53;;;;;;;4.00;2.80;;;;;;;20.59;100.00;99213.77;105897;1251;71187;-74
2023/08/04 02:55:20;;;;;;;5.40;2.50;;;;;;;20.59;100.00;99217.73;105765;1256;72431;-75
2023/08/04 02:57:46;;;;;;;3.60;2.50;;;;;;;20.57;100.00;99220.20;105692;1251;61307;-75
2023/08/04 03:00:13;;;;;;;2.60;2.40;;;;;;;20.56;100.00;99217.96;105914;1256;61228;-75
2023/08/04 03:02:40;;;;;;;7.10;2.80;;;;;;;20.56;100.00;99218.84;105883;1254;75232;-74
2023/08/04 03:05:07;;;;;;;3.80;2.50;;;;;;;20.56;100.00;99222.06;105882;1257;70211;-78
2023/08/04 03:07:34;;;;;;;7.10;2.70;;;;;;;20.56;100.00;99226.32;105909;1251;71621;-75
2023/08/04 03:10:01;;;;;;;4.20;2.30;;;;;;;20.56;100.00;99227.95;105851;1250;61743;-74
2023/08/04 03:12:27;;;;;;;3.10;2.90;;;;;;;20.57;100.00;99224.84;105902;1255;61372;-75
2023/08/04 03:14:54;;;;;;;3.30;2.90;;;;;;;20.57;100.00;99229.67;105866;1254;74546;-75
2023/08/04 03:17:21;;;;;;;10.30;3.10;;;;;;;20.55;100.00;99227.54;105926;1255;61273;-75
2023/08/04 03:19:48;;;;;;;3.90;2.90;;;;;;;20.54;100.00;99232.41;105887;1251;72354;-75
2023/08/04 03:22:14;;;;;;;5.40;2.80;;;;;;;20.52;100.00;99233.62;105881;1251;61246;-75
2023/08/04 03:24:41;;;;;;;4.60;2.70;;;;;;;20.50;100.00;99236.44;105930;1257;61574;-75
2023/08/04 03:27:07;;;;;;;2.80;2.60;;;;;;;20.49;100.00;99234.58;105925;1256;61598;-75
2023/08/04 03:29:34;;;;;;;3.90;2.70;;;;;;;20.48;100.00;99235.21;105856;1256;61337;-75
2023/08/04 03:32:00;;;;;;;3.00;2.80;;;;;;;20.47;100.00;99232.64;105832;1251;61342;-76
2023/08/04 03:34:27;;;;;;;9.80;2.60;;;;;;;20.46;100.00;99237.15;105878;1251;61608;-74
2023/08/04 03:36:54;;;;;;;4.30;3.30;;;;;;;20.44;100.00;99239.80;105875;1252;61222;-75
2023/08/04 03:39:21;;;;;;;4.00;2.80;;;;;;;20.42;100.00;99238.38;105899;1255;74526;-75
2023/08/04 03:41:47;;;;;;;4.80;2.90;;;;;;;20.41;100.00;99240.36;105890;1255;70387;-75
2023/08/04 03:44:15;;;;;;;5.30;2.70;;;;;;;20.42;100.00;99243.34;105822;1251;72471;-74
2023/08/04 03:46:41;;;;;;;3.80;2.90;;;;;;;20.44;100.00;99244.41;105820;1254;61221;-74
2023/08/04 03:49:08;;;;;;;4.80;3.40;;;;;;;20.45;100.00;99242.72;105894;1257;59314;-74
2023/08/04 03:51:34;;;;;;;5.30;2.80;;;;;;;20.47;100.00;99243.47;105933;1256;61349;-74
2023/08/04 03:54:01;;;;;;;5.70;2.80;;;;;;;20.50;100.00;99249.16;105759;1256;70998;-75
2023/08/04 03:56:28;;;;;;;8.10;3.10;;;;;;;20.51;100.00;99248.69;105885;1255;72743;-75
2023/08/04 03:58:54;;;;;;;2.90;2.70;;;;;;;20.53;100.00;99249.79;105858;1254;61371;-74
2023/08/04 04:01:22;;;;;;;3.30;2.90;;;;;;;20.55;100.00;99256.55;105859;1255;61260;-74
2023/08/04 04:03:48;;;;;;;5.80;3.10;;;;;;;20.57;100.00;99263.83;105853;1256;73450;-74
2023/08/04 04:06:16;;;;;;;5.90;2.90;;;;;;;20.59;100.00;99272.39;105923;1250;70857;-75
2023/08/04 04:08:45;;;;;;;3.40;3.20;;;;;;;20.60;100.00;99271.98;105893;1256;72429;-75
2023/08/04 04:11:11;;;;;;;3.30;3.00;;;;;;;20.62;100.00;99271.70;105864;1251;61281;-74
2023/08/04 04:13:40;;;;;;;6.40;3.30;;;;;;;20.61;100.00;99277.96;105878;1254;61343;-75
2023/08/04 04:16:06;;;;;;;5.60;2.90;;;;;;;20.61;100.00;99275.29;105923;1256;74454;-76
2023/08/04 04:18:33;;;;;;;7.30;2.80;;;;;;;20.60;100.00;99269.87;105951;1256;71070;-75
2023/08/04 04:21:00;;;;;;;4.80;3.10;;;;;;;20.60;100.00;99270.04;105909;1256;72458;-75
2023/08/04 04:23:27;;;;;;;4.80;3.40;;;;;;;20.58;100.00;99270.39;105858;1251;61350;-75
2023/08/04 04:25:54;;;;;;;4.10;3.10;;;;;;;20.56;100.00;99267.86;105739;1257;61270;-75
2023/08/04 04:28:20;;;;;;;5.80;3.70;;;;;;;20.56;100.00;99269.09;105872;1251;74521;-75
2023/08/04 04:30:47;;;;;;;5.80;3.00;;;;;;;20.58;100.00;99261.25;105893;1251;61347;-74
2023/08/04 04:33:15;;;;;;;6.70;3.20;;;;;;;20.63;100.00;99256.66;105887;1257;71283;-75
2023/08/04 04:35:51;;;;;;;4.60;3.70;;;;;;;20.68;100.00;99261.41;105856;1255;61451;-75
2023/08/04 04:38:18;;;;;;;3.80;3.10;;;;;;;20.74;100.00;99267.02;105908;1256;61231;-75
2023/08/04 04:40:44;;;;;;;3.40;3.10;;;;;;;20.80;100.00;99269.52;105894;1253;61239;-76
2023/08/04 04:43:11;;;;;;;5.20;3.30;;;;;;;20.87;100.00;99269.17;105846;1254;71104;-75
2023/08/04 04:45:40;;;;;;;8.10;3.70;;;;;;;20.90;100.00;99268.88;105994;1256;72660;-75
2023/08/04 04:48:07;;;;;;;7.60;3.10;;;;;;;20.92;100.00;99264.61;105820;1254;61345;-74
2023/08/04 04:50:33;;;;;;;8.80;3.60;;;;;;;20.97;100.00;99268.53;105852;1257;61333;-75
2023/08/04 04:53:00;;;;;;;10.50;3.30;;;;;;;21.01;100.00;99269.27;105884;1254;74776;-74
2023/08/04 04:55:27;;;;;;;5.50;3.40;;;;;;;21.06;100.00;99273.15;105893;1257;69653;-75
2023/08/04 04:57:53;;;;;;;4.10;2.80;;;;;;;21.12;100.00;99276.18;105846;1256;71218;-75
2023/08/04 05:00:24;;;;;;;4.30;3.40;;;;;;;21.18;100.00;99278.41;105806;1251;61278;-74
2023/08/04 05:02:52;;;;;;;3.20;3.00;;;;;;;21.25;100.00;99286.05;105950;1249;61151;-75
2023/08/04 05:05:20;;;;;;;4.60;3.00;;;;;;;21.31;100.00;99284.05;105855;1256;74654;-75
2023/08/04 05:07:46;;;;;;;8.40;3.10;;;;;;;21.39;100.00;99288.06;105854;1251;71360;-75
2023/08/04 05:10:13;;;;;;;6.70;3.80;;;;;;;21.46;100.00;99288.36;105847;1264;61276;-75
2023/08/04 05:12:39;;;;;;;3.80;3.20;;;;;;;21.53;100.00;99286.77;105860;1257;61352;-75
2023/08/04 05:15:07;;;;;;;5.70;3.10;;;;;;;21.59;100.00;99288.42;105854;1254;61360;-75
2023/08/04 05:17:35;;;;;;;6.40;3.60;;;;;;;21.65;100.00;99289.31;105836;1257;72675;-75
2023/08/04 05:20:03;;;;;;;8.30;3.20;;;;;;;21.72;100.00;99290.84;105872;1251;71497;-75
2023/08/04 05:22:30;;;;;;;3.60;3.30;;;;;;;21.81;100.00;99292.05;105893;1251;72590;-75
2023/08/04 05:24:56;;;;;;;4.60;3.80;;;;;;;21.92;100.00;99293.50;105865;1254;61282;-75
2023/08/04 05:27:37;;;;;;;5.10;3.50;;;;;;;22.02;100.00;99293.16;105869;1257;61346;-75
2023/08/04 05:30:05;;;;;;;4.20;3.70;;;;;;;22.12;100.00;99291.56;105901;1251;74609;-75
2023/08/04 05:32:31;;;;;;;11.50;4.60;;;;;;;22.24;100.00;99293.59;105897;1251;70801;-75
2023/08/04 05:34:58;;;;;;;6.20;3.40;;;;;;;22.38;100.00;99297.43;105894;1254;72599;-75
2023/08/04 05:37:25;;;;;;;5.60;3.50;;;;;;;22.51;100.00;99292.17;105877;1256;61359;-75
2023/08/04 05:39:51;;;;;;;11.00;3.50;;;;;;;22.60;100.00;99286.70;105905;1251;61269;-75
2023/08/04 05:42:18;;;;;;;5.10;3.20;;;;;;;22.67;100.00;99280.27;105875;1256;74638;-75
2023/08/04 05:44:45;;;;;;;7.30;3.60;;;;;;;22.71;100.00;99272.04;105871;1256;70930;-75
2023/08/04 05:47:13;;;;;;;9.00;3.50;;;;;;;22.74;100.00;99271.51;105930;1254;72317;-75
2023/08/04 05:49:39;;;;;;;3.70;3.40;;;;;;;22.78;100.00;99270.26;105861;1254;61365;-75
2023/08/04 05:52:06;;;;;;;6.10;3.40;;;;;;;22.84;100.00;99266.70;105901;1257;61343;-75
2023/08/04 05:54:33;;;;;;;7.50;3.80;;;;;;;22.91;100.00;99266.63;105870;1251;73066;-75
2023/08/04 05:57:00;;;;;;;6.10;3.40;;;;;;;22.97;100.00;99270.23;105872;1255;71186;-75
2023/08/04 05:59:26;;;;;;;4.80;3.10;;;;;;;23.01;100.00;99270.73;105860;1254;72397;-75
2023/08/04 06:01:54;;;;;;;8.40;3.70;;;;;;;23.05;100.00;99269.18;105841;1251;61969;-75
2023/08/04 06:04:21;;;;;;;5.00;2.90;;;;;;;23.08;100.00;99267.69;105900;1252;61657;-76
2023/08/04 06:06:48;;;;;;;8.80;3.50;;;;;;;23.11;100.00;99266.48;105892;1251;73248;-76
2023/08/04 06:09:15;;;;;;;5.60;3.30;;;;;;;23.15;100.00;99271.08;105939;1254;61241;-76
2023/08/04 06:11:42;;;;;;;6.00;3.60;;;;;;;23.19;100.00;99274.64;105889;1254;72667;-76
2023/08/04 06:14:08;;;;;;;7.60;5.10;;;;;;;23.24;100.00;99271.23;105856;1254;61595;-76
2023/08/04 06:16:35;;;;;;;8.30;5.70;;;;;;;23.29;100.00;99270.33;105949;1257;61368;-76
2023/08/04 06:19:02;;;;;;;7.60;4.30;;;;;;;23.36;100.00;99271.48;105929;1254;61243;-76
2023/08/04 06:21:29;;;;;;;7.90;3.40;;;;;;;23.46;100.00;99276.18;105926;1256;70928;-77
2023/08/04 06:23:56;;;;;;;6.20;3.70;;;;;;;23.55;100.00;99281.27;105868;1255;63849;-74
2023/08/04 06:26:22;;;;;;;11.00;3.60;;;;;;;23.65;100.00;99287.27;105834;1251;61255;-76
2023/08/04 06:28:51;;;;;;;5.20;3.70;;;;;;;23.78;100.00;99293.23;105943;1254;61346;-77
2023/08/04 06:31:17;;;;;;;4.70;3.20;;;;;;;23.88;100.00;99290.02;105860;1254;74747;-74
2023/08/04 06:33:44;;;;;;;6.40;3.20;;;;;;;23.96;100.00;99290.69;105885;1252;71149;-75
2023/08/04 06:36:11;;;;;;;5.00;3.60;;;;;;;24.05;100.00;99292.91;105907;1251;72638;-75
2023/08/04 06:38:37;;;;;;;5.40;2.80;;;;;;;24.12;100.00;99276.99;105890;1256;61377;-76
2023/08/04 06:41:04;;;;;;;10.80;3.80;;;;;;;24.19;100.00;99273.55;105950;1254;61286;-76
2023/08/04 06:43:31;;;;;;;17.20;3.60;;;;;;;24.24;100.00;99284.14;105929;1251;73572;-75
2023/08/04 06:45:58;;;;;;;8.70;3.00;;;;;;;24.30;100.00;99279.59;105914;1251;71168;-75
2023/08/04 06:48:26;;;;;;;8.00;3.20;;;;;;;24.38;100.00;99281.04;105882;1251;72334;-75
2023/08/04 06:50:53;;;;;;;3.20;2.70;;;;;;;24.45;100.00;99276.04;105885;1257;61394;-76
2023/08/04 06:53:20;;;;;;;6.50;3.40;;;;;;;24.54;100.00;99282.36;105909;1251;61378;-76
2023/08/04 06:55:46;;;;;;;4.70;3.00;;;;;;;24.63;100.00;99286.54;106015;1254;74408;-75
2023/08/04 06:58:14;;;;;;;6.40;2.60;;;;;;;24.72;100.00;99282.98;105943;1251;71016;-75
2023/08/04 07:00:41;;;;;;;5.70;3.20;;;;;;;24.80;100.00;99283.05;105889;1251;73121;-76
2023/08/04 07:03:09;;;;;;;7.00;3.50;;;;;;;24.88;100.00;99279.30;105957;1251;61349;-77
2023/08/04 07:05:37;;;;;;;4.10;3.10;;;;;;;24.94;100.00;99281.91;105985;1251;61305;-76
2023/08/04 07:08:03;;;;;;;4.50;3.20;;;;;;;25.01;100.00;99284.95;105942;1254;73630;-76
2023/08/04 07:10:34;;;;;;;5.30;3.10;;;;;;;25.11;100.00;99292.77;105963;1251;71139;-76
2023/08/04 07:13:01;;;;;;;5.10;2.80;;;;;;;25.21;100.00;99296.85;106038;1254;72366;-75
2023/08/04 07:15:28;;;;;;;4.80;2.90;;;;;;;25.32;100.00;99288.58;106196;1251;61950;-75
2023/08/04 07:17:57;;;;;;;4.10;2.80;;;;;;;25.44;100.00;99283.50;105859;1254;61349;-76
2023/08/04 07:20:24;;;;;;;4.30;2.80;;;;;;;25.54;100.00;99286.76;105839;1251;74447;-75
2023/08/04 07:22:51;;;;;;;6.40;3.00;;;;;;;25.64;100.00;99289.30;105919;1251;70954;-75
2023/08/04 07:25:18;;;;;;;12.10;3.50;;;;;;;25.74;100.00;99290.80;105905;1251;72701;-76
2023/08/04 07:27:45;;;;;;;6.30;2.70;;;;;;;25.83;100.00;99289.20;105877;1254;61218;-76
2023/08/04 07:30:13;;;;;;;6.10;3.00;;;;;;;25.91;100.00;99281.92;105949;1251;61254;-75
2023/08/04 07:32:40;;;;;;;5.50;3.10;;;;;;;25.98;100.00;99279.41;105902;1254;74569;-75
2023/08/04 07:35:07;;;;;;;7.60;2.90;;;;;;;26.07;100.00;99280.48;105909;1255;69966;-74
2023/08/04 07:37:34;;;;;;;5.40;2.60;;;;;;;26.16;100.00;99273.77;105941;1251;72462;-74
2023/08/04 07:40:01;;;;;;;5.00;2.80;;;;;;;26.26;100.00;99266.34;105853;1251;61282;-75
2023/08/04 07:42:29;;;;;;;10.00;3.10;;;;;;;26.36;100.00;99265.11;105998;1250;61360;-76
2023/08/04 07:44:57;;;;;;;4.50;2.50;;;;;;;26.45;100.00;99268.05;105930;1254;74954;-75
2023/08/04 07:47:23;;;;;;;12.70;6.10;;;;;;;26.55;100.00;99270.70;105914;1256;70918;-75
2023/08/04 07:49:50;;;;;;;11.50;4.10;;;;;;;26.65;100.00;99274.64;106127;1251;72491;-76
2023/08/04 07:52:17;;;;;;;4.30;2.60;;;;;;;26.76;100.00;99272.30;105892;1251;61302;-78
2023/08/04 07:54:43;;;;;;;7.40;2.60;;;;;;;26.86;100.00;99275.27;105912;1251;61215;-78
2023/08/04 07:57:10;;;;;;;8.20;3.10;;;;;;;26.96;100.00;99274.76;105975;1251;74623;-76
2023/08/04 07:59:37;;;;;;;2.90;2.60;;;;;;;27.07;100.00;99277.03;105907;1254;70235;-76
2023/08/04 08:02:05;;;;;;;4.40;2.70;;;;;;;27.15;100.00;99268.59;105854;1254;71470;-76
2023/08/04 08:04:34;;;;;;;4.10;2.90;;;;;;;27.23;100.00;99271.54;105957;1257;61359;-74
2023/08/04 08:07:00;;;;;;;5.40;2.80;;;;;;;27.31;100.00;99276.59;105919;1252;61164;-75
2023/08/04 08:09:27;;;;;;;5.00;2.70;;;;;;;27.41;100.00;99274.59;105985;1254;64520;-76
2023/08/04 08:11:53;;;;;;;7.30;3.30;;;;;;;27.51;100.00;99269.59;106011;1254;61271;-76
2023/08/04 08:14:21;;;;;;;2.70;2.50;;;;;;;27.60;100.00;99270.40;106107;1251;62519;-74
2023/08/04 08:16:48;;;;;;;5.10;2.30;;;;;;;27.70;100.00;99269.15;106008;1251;61342;-75
2023/08/04 08:19:15;;;;;;;7.40;2.00;;;;;;;27.79;100.00;99264.18;106009;1251;61240;-75
2023/08/04 08:21:42;;;;;;;2.70;1.80;;;;;;;27.86;100.00;99264.11;106003;1251;74509;-75
2023/08/04 08:24:09;;;;;;;6.20;2.20;;;;;;;27.93;100.00;99265.37;106000;1251;62168;-75
2023/08/04 08:26:36;;;;;;;3.80;1.60;;;;;;;28.01;100.00;99268.79;106023;1254;64092;-76
2023/08/04 08:29:04;;;;;;;2.50;1.70;;;;;;;28.06;100.00;99260.15;105966;1255;61225;-75
2023/08/04 08:31:31;;;;;;;6.10;2.00;;;;;;;28.12;100.00;99262.11;106257;1252;61233;-76
2023/08/04 08:33:58;;;;;;;7.00;1.90;;;;;;;28.22;100.00;99265.27;105942;1254;65825;-76
2023/08/04 08:36:25;;;;;;;2.30;1.80;;;;;;;28.30;100.00;99267.88;105939;1251;62479;-75
2023/08/04 08:38:51;;;;;;;3.20;1.90;;;;;;;28.39;100.00;99264.66;105987;1251;63882;-75
2023/08/04 08:41:18;;;;;;;2.20;1.70;;;;;;;28.47;100.00;99259.97;106156;1254;61267;-75
2023/08/04 08:43:46;;;;;;;5.90;2.00;;;;;;;28.54;100.00;99255.29;106202;1254;61266;-76
2023/08/04 08:46:14;;;;;;;2.30;1.70;;;;;;;28.61;100.00;99260.27;106085;1254;66081;-76
2023/08/04 08:48:42;;;;;;;5.40;2.20;;;;;;;28.69;100.00;99261.70;106191;1251;62329;-76
2023/08/04 08:51:12;;;;;;;2.80;1.50;;;;;;;28.76;100.00;99264.82;106168;1254;62431;-76
2023/08/04 08:53:39;;;;;;;1.60;1.50;;;;;;;28.84;100.00;99265.01;106120;1251;61164;-76
2023/08/04 08:56:07;;;;;;;1.70;1.40;;;;;;;28.91;100.00;99264.23;105941;1251;61324;-75
2023/08/04 08:58:34;;;;;;;2.00;1.30;;;;;;;28.99;100.00;99270.52;105944;1251;65752;-76
2023/08/04 09:01:01;;;;;;;1.60;1.50;;;;;;;29.08;100.00;99272.77;105929;1251;62179;-75
2023/08/04 09:03:29;;;;;;;2.80;1.50;;;;;;;29.16;100.00;99268.42;105901;1251;64112;-75
2023/08/04 09:05:56;;;;;;;2.00;1.70;;;;;;;29.22;100.00;99269.11;106009;1254;61234;-76
2023/08/04 09:08:22;;;;;;;1.60;1.30;;;;;;;29.28;100.00;99265.76;106138;1251;61269;-75
2023/08/04 09:10:49;;;;;;;3.70;1.60;;;;;;;29.34;100.00;99267.98;106253;1254;65679;-76
2023/08/04 09:13:16;;;;;;;3.00;1.50;;;;;;;29.39;100.00;99272.39;105961;1254;62621;-74
2023/08/04 09:15:51;;;;;;;5.50;1.40;;;;;;;29.46;100.00;99267.63;105878;1251;71160;-75
2023/08/04 09:18:28;;;;;;;3.60;1.30;;;;;;;29.53;100.00;99268.45;105947;1249;61342;-75
2023/08/04 09:21:02;;;;;;;5.60;1.50;;;;;;;29.60;100.00;99266.80;105958;1251;61279;-75
2023/08/04 09:23:29;;;;;;;1.50;1.40;;;;;;;29.69;100.00;99263.27;105921;1254;64790;-75
2023/08/04 09:25:56;;;;;;;5.30;1.20;;;;;;;29.75;100.00;99267.45;106144;1254;62567;-76
2023/08/04 09:28:25;;;;;;;1.40;1.30;;;;;;;29.81;100.00;99261.15;106258;1251;63884;-75
2023/08/04 09:31:01;;;;;;;2.10;1.40;;;;;;;29.88;100.00;99262.44;105884;1251;61249;-75
2023/08/04 09:33:28;;;;;;;2.30;1.30;;;;;;;29.93;100.00;99260.80;106003;1251;61346;-76
2023/08/04 09:36:11;;;;;;;2.00;1.40;;;;;;;29.98;100.00;99264.52;105964;1254;64612;-75
2023/08/04 09:38:38;;;;;;;8.70;1.30;;;;;;;30.06;100.00;99262.27;106068;1254;61251;-75
2023/08/04 09:41:10;;;;;;;1.80;1.20;;;;;;;30.14;100.00;99261.36;106429;1254;64056;-75
2023/08/04 09:43:44;;;;;;;5.30;1.30;;;;;;;30.21;100.00;99261.98;105930;1251;61253;-76
2023/08/04 09:46:11;;;;;;;3.70;1.40;;;;;;;30.29;100.00;99260.08;106293;1254;61219;-76
2023/08/04 09:48:39;;;;;;;3.20;1.30;;;;;;;30.38;100.00;99261.73;106260;1254;65716;-76
2023/08/04 09:51:11;;;;;;;3.80;1.20;;;;;;;30.45;100.00;99262.50;106105;1251;62594;-75
2023/08/04 09:53:44;;;;;;;1.50;1.40;;;;;;;30.51;100.00;99261.71;106093;1250;63859;-76
2023/08/04 09:56:13;;;;;;;1.30;1.00;;;;;;;30.57;100.00;99264.42;106002;1250;61358;-75
2023/08/04 09:58:40;;;;;;;7.10;1.60;;;;;;;30.64;100.00;99263.93;106312;1254;61262;-75
2023/08/04 10:01:07;;;;;;;2.90;1.10;;;;;;;30.70;100.00;99268.77;106186;1254;65992;-77
2023/08/04 10:03:57;;;;;;;5.40;1.30;;;;;;;30.74;100.00;99264.89;106194;1254;62684;-76
2023/08/04 10:06:24;;;;;;;1.40;1.10;;;;;;;30.76;100.00;99274.61;106012;1255;64105;-76
2023/08/04 10:08:54;;;;;;;29.50;1.70;;;;;;;30.74;100.00;99269.40;105909;1254;61346;-75
2023/08/04 10:11:21;;;;;;;4.90;1.60;;;;;;;30.71;100.00;99272.62;106183;1251;61269;-75
2023/08/04 10:13:50;;;;;;;2.50;1.50;;;;;;;30.72;100.00;99270.76;106024;1254;66469;-74
2023/08/04 10:16:18;;;;;;;3.00;1.30;;;;;;;30.77;100.00;99272.86;106189;1251;62396;-75
2023/08/04 10:18:47;;;;;;;3.50;1.50;;;;;;;30.81;100.00;99272.77;106317;1256;62592;-75
2023/08/04 10:21:14;;;;;;;3.30;1.40;;;;;;;30.81;100.00;99275.70;106181;1250;61272;-75
2023/08/04 10:23:40;;;;;;;2.40;1.40;;;;;;;30.83;100.00;99277.06;105995;1250;61340;-76
2023/08/04 10:26:10;;;;;;;1.90;1.20;;;;;;;30.89;100.00;99279.77;106042;1253;66132;-75
2023/08/04 10:29:03;;;;;;;3.60;1.50;;;;;;;30.95;100.00;99288.27;106091;1251;62249;-75
2023/08/04 10:31:56;;;;;;;3.00;1.40;;;;;;;30.99;100.00;99287.58;106154;1250;62621;-76
2023/08/04 10:34:35;;;;;;;;;;;;;;;31.06;100.00;99282.02;105921;1249;61340;-75
2023/08/04 10:37:11;;;;;;;2.80;1.50;;;;;;;31.12;100.00;99286.84;106115;1251;61375;-76
2023/08/04 10:39:41;;;;;;;4.50;1.70;;;;;;;31.15;100.00;99288.55;106222;1254;66139;-76
2023/08/04 10:42:27;;;;;;;3.80;1.60;;;;;;;31.18;100.00;99286.16;106214;1254;61365;-75
2023/08/04 10:44:55;;;;;;;2.30;1.50;;;;;;;31.22;100.00;99287.27;106618;1254;63910;-75
2023/08/04 10:47:51;;;;;;;3.20;1.30;;;;;;;31.24;100.00;99287.05;106404;1251;61275;-75
2023/08/04 10:50:37;;;;;;;4.90;1.60;;;;;;;31.28;100.00;99286.68;106501;1254;61349;-75
2023/08/04 10:53:04;;;;;;;1.90;1.80;;;;;;;31.34;100.00;99287.37;106231;1254;61362;-76
2023/08/04 10:55:33;;;;;;;5.30;1.80;;;;;;;31.40;100.00;99291.48;105958;1251;62487;-75
2023/08/04 10:57:59;;;;;;;3.60;1.60;;;;;;;31.47;100.00;99289.70;106002;1251;62505;-76
2023/08/04 11:00:27;;;;;;;2.70;1.80;;;;;;;31.52;100.00;99294.25;106135;1250;61317;-75
2023/08/04 11:02:54;;;;;;;2.70;2.00;;;;;;;31.56;100.00;99295.59;105928;1251;61272;-75
2023/08/04 11:05:22;;;;;;;4.80;1.70;;;;;;;31.60;100.00;99291.59;106089;1250;65855;-75
2023/08/04 11:07:49;;;;;;;9.70;1.90;;;;;;;31.62;100.00;99292.73;106297;1250;62301;-76
2023/08/04 11:10:16;;;;;;;1.70;1.60;;;;;;;31.58;100.00;99292.40;106150;1254;64116;-75
2023/08/04 11:12:43;;;;;;;2.10;1.90;;;;;;;31.60;100.00;99293.22;106433;1250;61224;-75
2023/08/04 11:15:10;;;;;;;1.90;1.80;;;;;;;31.65;100.00;99298.23;106450;1250;174824;-76
2023/08/04 11:17:41;;;;;;;4.70;1.90;;;;;;;31.71;100.00;99300.71;106200;1254;66089;-76
2023/08/04 11:20:12;;;;;;;3.30;1.90;;;;;;;31.77;100.00;99300.14;106194;1251;62621;-74